RJFS(METAR)
05/24 13:00
METAR RJFS 240400Z 17009KT CAVOK 24/19 Q1015 RMK A2997=
戻る
トップページへ戻る
IMOC Co,.Ltd.